Team Kb — XPE7822 — position and weather

sailwx.info

Track history (hours):
 
Tides and Currents Weather Stations Pressure Air Temp Water Temp Dewpoint Dewpoint Depression Visibility Wind Speed Wind Dir Waves Ship Positions

Team Kb

Last reported at 2017-Sep-29 06:13 UTC. Time now 2017-Dec-17 23:38 UTC.
Position N 70°60' E 024°40'.
Warning: this ship's position is months out of date.

Type: Pleasure craft. MMSI: 219021562.

Date/timePositionNaut miles runAvg speedWind from/ knotsBaromVisibWave heightAir tempDewpointWater temp
2017-Sep-29 06:13N 70°60' E 024°40'0 0.7
2017-Sep-29 06:00N 70°60' E 024°40'3 0.2
2017-Sep-28 14:42N 70°57' E 024°35'627.3
2017-Sep-28 14:29N 70°55' E 024°20'4 7.6
2017-Sep-28 13:59N 70°52' E 024°11'0 0.6
2017-Sep-28 13:29N 70°52' E 024°12'0 0.8
2017-Sep-28 12:59N 70°53' E 024°13'1 1.1
2017-Sep-28 12:29N 70°53' E 024°13'3 6.2
2017-Sep-28 11:58N 70°55' E 024°04'1 1.0
2017-Sep-28 11:28N 70°55' E 024°05'0 0.5
2017-Sep-28 10:58N 70°55' E 024°05'0 0.6
2017-Sep-28 10:28N 70°56' E 024°06'0 0.3
2017-Sep-28 09:58N 70°56' E 024°06'0 0.1
2017-Sep-28 09:25N 70°56' E 024°06'0 0.5
2017-Sep-28 08:58N 70°55' E 024°07'0 0.4
2017-Sep-28 08:28N 70°55' E 024°08'0 0.3
2017-Sep-28 07:58N 70°55' E 024°07'3 6.1
2017-Sep-28 07:30N 70°53' E 024°14'1 1.0
2017-Sep-28 06:58N 70°53' E 024°13'0 0.4
2017-Sep-28 06:28N 70°53' E 024°13'0 0.2
2017-Sep-28 05:58N 70°53' E 024°13'0 1.0
2017-Sep-28 05:30N 70°52' E 024°13'0 0.4
2017-Sep-28 05:00N 70°52' E 024°12'816.8
2017-Sep-28 04:30N 70°58' E 024°31'1 0.1
2017-Sep-27 16:19N 70°57' E 024°34'822.0
2017-Sep-27 15:58N 70°54' E 024°14'0 0.1
2017-Sep-27 15:28N 70°54' E 024°14'1 1.2
2017-Sep-27 15:00N 70°53' E 024°13'0 0.2
2017-Sep-27 14:28N 70°53' E 024°13'0 0.6
2017-Sep-27 13:58N 70°53' E 024°13'0 0.3
2017-Sep-27 13:28N 70°53' E 024°14'1 1.8
2017-Sep-27 13:00N 70°53' E 024°14'0 0.3
2017-Sep-27 12:29N 70°53' E 024°13'0 0.6
2017-Sep-27 12:00N 70°52' E 024°12'3 6.8
2017-Sep-27 11:30N 70°55' E 024°20'5 9.5
2017-Sep-27 11:00N 70°58' E 024°31'2 3.8
2017-Sep-27 10:30N 70°59' E 024°35'2 3.4
2017-Sep-27 09:59N 70°60' E 024°40'1121.0
2017-Sep-27 09:29N 70°53' E 024°14'1 1.0
2017-Sep-27 08:58N 70°53' E 024°13'0 0.9
2017-Sep-27 08:28N 70°53' E 024°14'0 0.6
2017-Sep-27 07:59N 70°53' E 024°14'0 0.7
2017-Sep-27 07:29N 70°53' E 024°14'0 1.0
2017-Sep-27 07:00N 70°54' E 024°15'1 1.5
2017-Sep-27 06:30N 70°53' E 024°13'1 1.2
2017-Sep-27 05:59N 70°53' E 024°13'0 1.0
2017-Sep-27 05:29N 70°52' E 024°12'1 1.9
2017-Sep-27 05:00N 70°53' E 024°13'0 0.2
2017-Sep-27 04:29N 70°53' E 024°13'815.1
2017-Sep-27 03:59N 70°58' E 024°31'1 0.1
2017-Sep-26 15:57N 70°57' E 024°34'819.0
2017-Sep-26 15:30N 70°53' E 024°14'0 0.8
2017-Sep-26 15:00N 70°52' E 024°13'0 0.6
2017-Sep-26 14:27N 70°52' E 024°12'1 2.8
2017-Sep-26 13:58N 70°53' E 024°13'1 1.5
2017-Sep-26 13:30N 70°54' E 024°14'0 0.8
2017-Sep-26 12:57N 70°53' E 024°14'0 1.1
2017-Sep-26 12:30N 70°53' E 024°13'1 1.2
2017-Sep-26 11:59N 70°53' E 024°14'0 0.1
2017-Sep-26 11:30N 70°53' E 024°14'0 0.2
2017-Sep-26 11:00N 70°53' E 024°14'0 0.3
2017-Sep-26 10:30N 70°53' E 024°14'0 0.2
2017-Sep-26 10:00N 70°53' E 024°14'5 9.6
2017-Sep-26 09:30N 70°56' E 024°25'6 3.7
2017-Sep-26 07:57N 70°52' E 024°12'1 2.7
2017-Sep-26 07:28N 70°54' E 024°14'0 0.3
2017-Sep-26 06:57N 70°53' E 024°14'0 0.5
2017-Sep-26 06:30N 70°53' E 024°14'0 0.6
2017-Sep-26 06:00N 70°53' E 024°13'1 1.8
2017-Sep-26 05:30N 70°54' E 024°15'0 0.9
2017-Sep-26 04:59N 70°53' E 024°14'510.0
2017-Sep-26 04:30N 70°56' E 024°26'1 1.7
2017-Sep-26 03:59N 70°57' E 024°28'3 0.3
2017-Sep-25 15:45N 70°58' E 024°37'1 4.6
2017-Sep-25 15:31N 70°58' E 024°34'0 0.7
2017-Sep-25 14:58N 70°58' E 024°33'0 0.5
2017-Sep-25 14:28N 70°57' E 024°32'919.6
2017-Sep-25 13:59N 71°02' E 024°07'2 3.3
2017-Sep-25 13:30N 71°02' E 024°03'0 0.6
2017-Sep-25 12:58N 71°02' E 024°02'0 1.1
2017-Sep-25 12:30N 71°03' E 024°01'0 0.5
2017-Sep-25 11:59N 71°03' E 024°00'0 0.5
2017-Sep-25 11:30N 71°02' E 023°60'4 8.3
2017-Sep-25 11:00N 71°02' E 024°12'0 0.7
2017-Sep-25 10:28N 71°02' E 024°13'0 0.1
2017-Sep-25 09:58N 71°02' E 024°13'0 0.1
2017-Sep-25 09:28N 71°02' E 024°13'2 4.1
2017-Sep-25 09:00N 70°60' E 024°14'713.7
2017-Sep-25 08:30N 70°53' E 024°16'0 0.1
2017-Sep-25 08:00N 70°53' E 024°16'0 0.2
2017-Sep-25 07:30N 70°53' E 024°16'0 0.2
2017-Sep-25 06:59N 70°53' E 024°16'1 1.6
2017-Sep-25 06:30N 70°53' E 024°14'0 0.8
2017-Sep-25 06:00N 70°53' E 024°13'1 1.1
2017-Sep-25 05:30N 70°52' E 024°12'1 1.2
2017-Sep-25 04:59N 70°52' E 024°11'613.5
2017-Sep-25 04:30N 70°56' E 024°26'3 5.2
2017-Sep-25 03:59N 70°57' E 024°33'2 0.1
2017-Sep-24 16:41N 70°58' E 024°38'422.7
2017-Sep-24 16:30N 70°56' E 024°25'0 0.4
2017-Sep-24 16:00N 70°56' E 024°25'0 0.2
2017-Sep-24 15:29N 70°56' E 024°25'0 0.3
2017-Sep-24 15:00N 70°56' E 024°25'4 6.9
2017-Sep-24 14:30N 70°53' E 024°19'2 4.3
2017-Sep-24 14:00N 70°52' E 024°13'2 4.2
2017-Sep-24 13:30N 70°54' E 024°15'1 1.9
2017-Sep-24 12:59N 70°53' E 024°13'1 1.5
2017-Sep-24 12:30N 70°53' E 024°12'1 2.3
2017-Sep-24 12:00N 70°54' E 024°13'0 0.7
2017-Sep-24 11:30N 70°53' E 024°13'1 2.3
2017-Sep-24 10:58N 70°53' E 024°17'1 1.4
2017-Sep-24 10:30N 70°53' E 024°15'1 1.1
2017-Sep-24 10:00N 70°53' E 024°14'2 3.2
2017-Sep-24 09:30N 70°51' E 024°13'2 3.5
2017-Sep-24 08:59N 70°52' E 024°18'2 4.2
2017-Sep-24 08:30N 70°53' E 024°21'711.3
2017-Sep-24 07:53N 70°58' E 024°38'2 5.4
2017-Sep-24 07:30N 70°60' E 024°38'  
Track history (hours):
 
Tides and Currents Weather Stations Pressure Air Temp Water Temp Dewpoint Dewpoint Depression Visibility Wind Speed Wind Dir Waves Ship Positions

Team Kb

Last reported at 2017-Sep-29 06:13 UTC. Time now 2017-Dec-17 23:38 UTC.
Position N 70°60' E 024°40'.
Warning: this ship's position is months out of date.

Type: Pleasure craft. MMSI: 219021562.

Date/timePositionNaut miles runAvg speedWind from/ knotsBaromVisibWave heightAir tempDewpointWater temp
2017-Sep-29 06:13N 70°60' E 024°40'0 0.7
2017-Sep-29 06:00N 70°60' E 024°40'3 0.2
2017-Sep-28 14:42N 70°57' E 024°35'627.3
2017-Sep-28 14:29N 70°55' E 024°20'4 7.6
2017-Sep-28 13:59N 70°52' E 024°11'0 0.6
2017-Sep-28 13:29N 70°52' E 024°12'0 0.8
2017-Sep-28 12:59N 70°53' E 024°13'1 1.1
2017-Sep-28 12:29N 70°53' E 024°13'3 6.2
2017-Sep-28 11:58N 70°55' E 024°04'1 1.0
2017-Sep-28 11:28N 70°55' E 024°05'0 0.5
2017-Sep-28 10:58N 70°55' E 024°05'0 0.6
2017-Sep-28 10:28N 70°56' E 024°06'0 0.3
2017-Sep-28 09:58N 70°56' E 024°06'0 0.1
2017-Sep-28 09:25N 70°56' E 024°06'0 0.5
2017-Sep-28 08:58N 70°55' E 024°07'0 0.4
2017-Sep-28 08:28N 70°55' E 024°08'0 0.3
2017-Sep-28 07:58N 70°55' E 024°07'3 6.1
2017-Sep-28 07:30N 70°53' E 024°14'1 1.0
2017-Sep-28 06:58N 70°53' E 024°13'0 0.4
2017-Sep-28 06:28N 70°53' E 024°13'0 0.2
2017-Sep-28 05:58N 70°53' E 024°13'0 1.0
2017-Sep-28 05:30N 70°52' E 024°13'0 0.4
2017-Sep-28 05:00N 70°52' E 024°12'816.8
2017-Sep-28 04:30N 70°58' E 024°31'1 0.1
2017-Sep-27 16:19N 70°57' E 024°34'822.0
2017-Sep-27 15:58N 70°54' E 024°14'0 0.1
2017-Sep-27 15:28N 70°54' E 024°14'1 1.2
2017-Sep-27 15:00N 70°53' E 024°13'0 0.2
2017-Sep-27 14:28N 70°53' E 024°13'0 0.6
2017-Sep-27 13:58N 70°53' E 024°13'0 0.3
2017-Sep-27 13:28N 70°53' E 024°14'1 1.8
2017-Sep-27 13:00N 70°53' E 024°14'0 0.3
2017-Sep-27 12:29N 70°53' E 024°13'0 0.6
2017-Sep-27 12:00N 70°52' E 024°12'3 6.8
2017-Sep-27 11:30N 70°55' E 024°20'5 9.5
2017-Sep-27 11:00N 70°58' E 024°31'2 3.8
2017-Sep-27 10:30N 70°59' E 024°35'2 3.4
2017-Sep-27 09:59N 70°60' E 024°40'1121.0
2017-Sep-27 09:29N 70°53' E 024°14'1 1.0
2017-Sep-27 08:58N 70°53' E 024°13'0 0.9
2017-Sep-27 08:28N 70°53' E 024°14'0 0.6
2017-Sep-27 07:59N 70°53' E 024°14'0 0.7
2017-Sep-27 07:29N 70°53' E 024°14'0 1.0
2017-Sep-27 07:00N 70°54' E 024°15'1 1.5
2017-Sep-27 06:30N 70°53' E 024°13'1 1.2
2017-Sep-27 05:59N 70°53' E 024°13'0 1.0
2017-Sep-27 05:29N 70°52' E 024°12'1 1.9
2017-Sep-27 05:00N 70°53' E 024°13'0 0.2
2017-Sep-27 04:29N 70°53' E 024°13'815.1
2017-Sep-27 03:59N 70°58' E 024°31'1 0.1
2017-Sep-26 15:57N 70°57' E 024°34'819.0
2017-Sep-26 15:30N 70°53' E 024°14'0 0.8
2017-Sep-26 15:00N 70°52' E 024°13'0 0.6
2017-Sep-26 14:27N 70°52' E 024°12'1 2.8
2017-Sep-26 13:58N 70°53' E 024°13'1 1.5
2017-Sep-26 13:30N 70°54' E 024°14'0 0.8
2017-Sep-26 12:57N 70°53' E 024°14'0 1.1
2017-Sep-26 12:30N 70°53' E 024°13'1 1.2
2017-Sep-26 11:59N 70°53' E 024°14'0 0.1
2017-Sep-26 11:30N 70°53' E 024°14'0 0.2
2017-Sep-26 11:00N 70°53' E 024°14'0 0.3
2017-Sep-26 10:30N 70°53' E 024°14'0 0.2
2017-Sep-26 10:00N 70°53' E 024°14'5 9.6
2017-Sep-26 09:30N 70°56' E 024°25'6 3.7
2017-Sep-26 07:57N 70°52' E 024°12'1 2.7
2017-Sep-26 07:28N 70°54' E 024°14'0 0.3
2017-Sep-26 06:57N 70°53' E 024°14'0 0.5
2017-Sep-26 06:30N 70°53' E 024°14'0 0.6
2017-Sep-26 06:00N 70°53' E 024°13'1 1.8
2017-Sep-26 05:30N 70°54' E 024°15'0 0.9
2017-Sep-26 04:59N 70°53' E 024°14'510.0
2017-Sep-26 04:30N 70°56' E 024°26'1 1.7
2017-Sep-26 03:59N 70°57' E 024°28'3 0.3
2017-Sep-25 15:45N 70°58' E 024°37'1 4.6
2017-Sep-25 15:31N 70°58' E 024°34'0 0.7
2017-Sep-25 14:58N 70°58' E 024°33'0 0.5
2017-Sep-25 14:28N 70°57' E 024°32'919.6
2017-Sep-25 13:59N 71°02' E 024°07'2 3.3
2017-Sep-25 13:30N 71°02' E 024°03'0 0.6
2017-Sep-25 12:58N 71°02' E 024°02'0 1.1
2017-Sep-25 12:30N 71°03' E 024°01'0 0.5
2017-Sep-25 11:59N 71°03' E 024°00'0 0.5
2017-Sep-25 11:30N 71°02' E 023°60'4 8.3
2017-Sep-25 11:00N 71°02' E 024°12'0 0.7
2017-Sep-25 10:28N 71°02' E 024°13'0 0.1
2017-Sep-25 09:58N 71°02' E 024°13'0 0.1
2017-Sep-25 09:28N 71°02' E 024°13'2 4.1
2017-Sep-25 09:00N 70°60' E 024°14'713.7
2017-Sep-25 08:30N 70°53' E 024°16'0 0.1
2017-Sep-25 08:00N 70°53' E 024°16'0 0.2
2017-Sep-25 07:30N 70°53' E 024°16'0 0.2
2017-Sep-25 06:59N 70°53' E 024°16'1 1.6
2017-Sep-25 06:30N 70°53' E 024°14'0 0.8
2017-Sep-25 06:00N 70°53' E 024°13'1 1.1
2017-Sep-25 05:30N 70°52' E 024°12'1 1.2
2017-Sep-25 04:59N 70°52' E 024°11'613.5
2017-Sep-25 04:30N 70°56' E 024°26'3 5.2
2017-Sep-25 03:59N 70°57' E 024°33'2 0.1
2017-Sep-24 16:41N 70°58' E 024°38'422.7
2017-Sep-24 16:30N 70°56' E 024°25'0 0.4
2017-Sep-24 16:00N 70°56' E 024°25'0 0.2
2017-Sep-24 15:29N 70°56' E 024°25'0 0.3
2017-Sep-24 15:00N 70°56' E 024°25'4 6.9
2017-Sep-24 14:30N 70°53' E 024°19'2 4.3
2017-Sep-24 14:00N 70°52' E 024°13'2 4.2
2017-Sep-24 13:30N 70°54' E 024°15'1 1.9
2017-Sep-24 12:59N 70°53' E 024°13'1 1.5
2017-Sep-24 12:30N 70°53' E 024°12'1 2.3
2017-Sep-24 12:00N 70°54' E 024°13'0 0.7
2017-Sep-24 11:30N 70°53' E 024°13'1 2.3
2017-Sep-24 10:58N 70°53' E 024°17'1 1.4
2017-Sep-24 10:30N 70°53' E 024°15'1 1.1
2017-Sep-24 10:00N 70°53' E 024°14'2 3.2
2017-Sep-24 09:30N 70°51' E 024°13'2 3.5
2017-Sep-24 08:59N 70°52' E 024°18'2 4.2
2017-Sep-24 08:30N 70°53' E 024°21'711.3
2017-Sep-24 07:53N 70°58' E 024°38'2 5.4
2017-Sep-24 07:30N 70°60' E 024°38'  

Dump ship's entire track history